Time;durP1;ratioP1;P1;durP2;ratioP2;P2;SDS_P1;SDS_P2;PMS_P1;PMS_P2;Temp;Humidity;BMP_temperature;BMP_pressure;BME280_temperature;BME280_humidity;BME280_pressure;Samples;Min_cycle;Max_cycle;Signal;HPM_P1;HPM_P2
2022/05/22 00:01:34;;;;;;;5.70;3.85;;;14.80;70.10;;;;;;5115204;28;20045;-64
2022/05/22 00:04:00;;;;;;;6.75;4.22;;;14.80;70.10;;;;;;5114974;28;20158;-64
2022/05/22 00:06:26;;;;;;;8.57;4.22;;;14.80;70.10;;;;;;5115010;28;20032;-64
2022/05/22 00:08:52;;;;;;;5.97;4.60;;;14.90;70.00;;;;;;5115025;28;20031;-64
2022/05/22 00:11:18;;;;;;;7.63;4.53;;;14.80;70.00;;;;;;5114950;28;20036;-64
2022/05/22 00:13:43;;;;;;;9.73;4.70;;;14.90;70.20;;;;;;5114864;28;20028;-64
2022/05/22 00:18:54;;;;;;;8.82;4.68;;;14.80;70.10;;;;;;5114872;28;20059;-64
2022/05/22 00:21:20;;;;;;;7.50;4.40;;;14.80;69.90;;;;;;5114696;28;20024;-64
2022/05/22 00:23:46;;;;;;;7.82;4.60;;;14.90;69.80;;;;;;5114586;28;20066;-64
2022/05/22 00:26:11;;;;;;;7.18;4.72;;;14.90;70.30;;;;;;5114429;28;20052;-64
2022/05/22 00:28:37;;;;;;;9.20;5.15;;;14.70;69.70;;;;;;5114457;28;20032;-64
2022/05/22 00:31:03;;;;;;;9.95;5.05;;;14.60;70.10;;;;;;5114633;28;20028;-64
2022/05/22 00:33:29;;;;;;;8.73;4.70;;;14.60;70.40;;;;;;5114458;28;20083;-64
2022/05/22 00:35:55;;;;;;;9.25;4.40;;;14.70;70.10;;;;;;5114409;28;20426;-64
2022/05/22 00:38:21;;;;;;;12.43;5.22;;;14.80;69.50;;;;;;5114415;28;20024;-63
2022/05/22 00:40:47;;;;;;;10.23;5.88;;;14.80;69.30;;;;;;5114349;28;20028;-64
2022/05/22 00:43:30;;;;;;;9.73;5.43;;;14.70;69.40;;;;;;5114239;28;20028;-64
2022/05/22 00:45:58;;;;;;;8.05;5.40;;;14.60;69.60;;;;;;5113326;28;20026;-64
2022/05/22 00:48:25;;;;;;;7.95;5.25;;;14.60;69.90;;;;;;5114372;28;20048;-64
2022/05/22 00:50:55;;;;;;;7.05;4.93;;;14.60;69.80;;;;;;5114195;28;20118;-64
2022/05/22 00:53:22;;;;;;;9.18;4.80;;;14.60;69.90;;;;;;5114152;28;20017;-64
2022/05/22 00:55:48;;;;;;;9.38;5.28;;;14.70;69.60;;;;;;5114075;28;20020;-64
2022/05/22 00:58:19;;;;;;;9.50;4.50;;;14.60;69.70;;;;;;5114019;28;20028;-64
2022/05/22 01:00:45;;;;;;;7.78;5.07;;;14.40;69.80;;;;;;5114188;28;20070;-64
2022/05/22 01:03:27;;;;;;;7.93;4.93;;;14.20;70.10;;;;;;5113879;28;20020;-64
2022/05/22 01:05:55;;;;;;;8.02;5.35;;;14.30;70.30;;;;;;5113987;28;20098;-64
2022/05/22 01:08:21;;;;;;;9.75;5.75;;;14.20;70.00;;;;;;5113059;28;20119;-64
2022/05/22 01:10:54;;;;;;;13.50;6.00;;;14.30;69.80;;;;;;5113852;28;20031;-64
2022/05/22 01:13:25;;;;;;;8.90;4.95;;;14.40;69.70;;;;;;5113813;28;20035;-63
2022/05/22 01:15:51;;;;;;;8.77;4.60;;;14.30;69.70;;;;;;5112777;28;20035;-64
2022/05/22 01:18:17;;;;;;;7.10;4.75;;;14.30;69.40;;;;;;5112795;28;20028;-64
2022/05/22 01:20:50;;;;;;;7.18;4.80;;;14.30;69.30;;;;;;5113801;28;20056;-64
2022/05/22 01:23:17;;;;;;;8.90;4.78;;;14.20;69.80;;;;;;5113556;28;20382;-64
2022/05/22 01:25:44;;;;;;;6.72;4.90;;;14.00;70.20;;;;;;5113439;28;20040;-66
2022/05/22 01:28:12;;;;;;;9.65;5.00;;;14.10;70.70;;;;;;5113528;28;20020;-64
2022/05/22 01:30:38;;;;;;;6.93;4.60;;;14.20;70.70;;;;;;5113476;28;20027;-64
2022/05/22 01:33:07;;;;;;;6.65;4.47;;;14.10;70.30;;;;;;5113540;28;20028;-64
2022/05/22 01:35:35;;;;;;;7.45;5.43;;;13.80;70.30;;;;;;5113612;28;20028;-63
2022/05/22 01:38:01;;;;;;;9.65;6.25;;;13.80;70.80;;;;;;5113474;28;20035;-64
2022/05/22 01:40:27;;;;;;;8.68;6.00;;;13.90;70.80;;;;;;5113466;28;20028;-63
2022/05/22 01:42:53;;;;;;;8.93;6.00;;;14.00;70.40;;;;;;5113347;28;20054;-63
2022/05/22 01:45:24;;;;;;;9.38;6.15;;;13.80;70.50;;;;;;5113347;28;20102;-64
2022/05/22 01:47:50;;;;;;;7.95;5.00;;;13.80;71.00;;;;;;5112321;28;20041;-64
2022/05/22 01:50:17;;;;;;;11.50;6.13;;;13.70;71.00;;;;;;5113339;28;20028;-64
2022/05/22 01:52:43;;;;;;;6.25;5.07;;;13.70;71.20;;;;;;5113329;28;20050;-64
2022/05/22 01:55:11;;;;;;;7.68;5.18;;;13.70;71.10;;;;;;5113316;28;20020;-64
2022/05/22 01:57:37;;;;;;;9.20;5.95;;;13.60;71.30;;;;;;5113309;28;20012;-64
2022/05/22 02:00:05;;;;;;;7.88;4.93;;;13.50;71.30;;;;;;5113375;28;20025;-64
2022/05/22 02:02:31;;;;;;;11.13;4.93;;;13.60;71.50;;;;;;5113045;28;20055;-64
2022/05/22 02:04:57;;;;;;;7.75;5.13;;;13.70;71.30;;;;;;5113197;28;20024;-64
2022/05/22 02:10:08;;;;;;;6.80;4.63;;;13.90;70.80;;;;;;5112422;28;20035;-64
2022/05/22 02:12:34;;;;;;;9.57;5.03;;;14.00;70.30;;;;;;5113090;28;20044;-64
2022/05/22 02:14:59;;;;;;;9.38;5.18;;;14.10;70.20;;;;;;5113111;28;20016;-64
2022/05/22 02:17:25;;;;;;;8.90;5.47;;;14.10;70.40;;;;;;5112089;28;20057;-64
2022/05/22 02:19:51;;;;;;;7.55;4.78;;;14.10;70.50;;;;;;5113892;28;20081;-64
2022/05/22 02:22:16;;;;;;;6.10;4.57;;;14.10;70.30;;;;;;5117029;28;20051;-64
2022/05/22 02:24:42;;;;;;;8.75;4.93;;;13.90;70.40;;;;;;5116722;28;20047;-64
2022/05/22 02:27:07;;;;;;;8.40;4.93;;;13.80;71.00;;;;;;5115866;28;20031;-65
2022/05/22 02:29:36;;;;;;;10.25;5.38;;;13.70;71.50;;;;;;5116821;28;20030;-64
2022/05/22 02:32:03;;;;;;;8.77;5.20;;;13.70;71.60;;;;;;5116824;28;20028;-63
2022/05/22 02:34:29;;;;;;;8.90;4.93;;;13.80;71.40;;;;;;5115764;28;20050;-64
2022/05/22 02:36:54;;;;;;;9.55;5.03;;;13.90;71.20;;;;;;5116771;28;20041;-64
2022/05/22 02:39:20;;;;;;;8.88;5.18;;;13.90;71.20;;;;;;5116688;28;20040;-63
2022/05/22 02:41:45;;;;;;;7.53;4.75;;;13.90;71.20;;;;;;5115689;28;20040;-64
2022/05/22 02:44:11;;;;;;;7.00;4.55;;;13.90;70.80;;;;;;5116565;28;20036;-63
2022/05/22 02:46:37;;;;;;;7.22;4.85;;;13.90;70.50;;;;;;5115648;28;20028;-64
2022/05/22 02:49:02;;;;;;;9.43;4.80;;;13.90;70.30;;;;;;5116509;28;20070;-63
2022/05/22 02:51:28;;;;;;;7.95;4.75;;;13.80;70.20;;;;;;5116458;28;20035;-64
2022/05/22 02:53:54;;;;;;;7.35;4.65;;;13.70;70.40;;;;;;5116454;28;20032;-64
2022/05/22 02:56:24;;;;;;;6.68;4.70;;;13.80;70.50;;;;;;5116384;28;20118;-64
2022/05/22 02:58:49;;;;;;;7.88;4.50;;;13.80;70.30;;;;;;5115437;28;20413;-64
2022/05/22 03:01:15;;;;;;;10.00;5.20;;;13.80;70.20;;;;;;5116279;28;20040;-64
2022/05/22 03:03:40;;;;;;;7.03;4.72;;;13.80;70.30;;;;;;5116161;28;20036;-64
2022/05/22 03:08:51;;;;;;;8.63;4.68;;;13.90;70.40;;;;;;5116382;28;20050;-64
2022/05/22 03:11:17;;;;;;;9.20;4.82;;;13.80;70.40;;;;;;5116219;28;20028;-64
2022/05/22 03:13:42;;;;;;;9.60;4.13;;;13.60;70.40;;;;;;5116006;28;20031;-64
2022/05/22 03:16:08;;;;;;;6.40;4.25;;;13.30;70.90;;;;;;5115946;28;20058;-64
2022/05/22 03:18:33;;;;;;;4.22;3.33;;;13.20;71.20;;;;;;5115949;28;20032;-64
2022/05/22 03:20:59;;;;;;;5.97;3.80;;;13.10;71.50;;;;;;5115927;28;20028;-64
2022/05/22 03:23:25;;;;;;;6.60;5.00;;;13.00;71.90;;;;;;5114782;28;20051;-64
2022/05/22 03:25:50;;;;;;;8.60;5.20;;;13.20;72.20;;;;;;5115637;28;20048;-66
2022/05/22 03:28:17;;;;;;;7.00;4.82;;;13.20;72.00;;;;;;5115709;28;20020;-64
2022/05/22 03:30:43;;;;;;;5.32;4.00;;;13.30;72.00;;;;;;5115723;28;20075;-64
2022/05/22 03:33:09;;;;;;;5.35;4.07;;;13.30;71.80;;;;;;5114846;28;20020;-63
2022/05/22 03:35:34;;;;;;;7.68;4.78;;;13.20;72.40;;;;;;5115671;28;20110;-63
2022/05/22 03:38:03;;;;;;;7.03;4.38;;;13.10;71.60;;;;;;5114533;28;20035;-64
2022/05/22 03:40:28;;;;;;;10.05;5.30;;;13.10;71.50;;;;;;5115521;28;20024;-65
2022/05/22 03:42:54;;;;;;;6.35;5.10;;;13.00;71.80;;;;;;5115398;28;20518;-64
2022/05/22 03:45:20;;;;;;;10.00;5.22;;;13.00;71.80;;;;;;5115527;28;20020;-64
2022/05/22 03:47:45;;;;;;;8.38;4.68;;;12.90;72.10;;;;;;5115366;28;20028;-64
2022/05/22 03:50:13;;;;;;;8.02;4.25;;;12.90;72.50;;;;;;5115338;28;20053;-63
2022/05/22 03:52:42;;;;;;;7.05;4.13;;;12.90;72.40;;;;;;5115362;28;20016;-64
2022/05/22 03:55:11;;;;;;;9.95;5.32;;;13.00;72.30;;;;;;5115291;28;20024;-64
2022/05/22 03:57:36;;;;;;;8.75;4.50;;;13.00;72.30;;;;;;5115171;28;20020;-63
2022/05/22 04:00:10;;;;;;;8.20;4.70;;;13.00;72.40;;;;;;5115145;28;20072;-64
2022/05/22 04:02:36;;;;;;;9.00;5.68;;;13.00;72.50;;;;;;5114960;28;20020;-64
2022/05/22 04:05:09;;;;;;;13.85;6.20;;;12.90;72.60;;;;;;5114117;28;20087;-64
2022/05/22 04:07:43;;;;;;;11.63;5.93;;;13.00;72.60;;;;;;5114197;28;20198;-63
2022/05/22 04:10:11;;;;;;;8.63;5.35;;;13.00;72.60;;;;;;5115115;28;20031;-64
2022/05/22 04:12:38;;;;;;;8.48;5.57;;;13.00;72.60;;;;;;5114928;28;20044;-64
2022/05/22 04:15:08;;;;;;;8.13;5.10;;;13.10;72.60;;;;;;5113838;28;20020;-63
2022/05/22 04:17:35;;;;;;;9.10;5.88;;;13.10;72.20;;;;;;5115031;28;20024;-64
2022/05/22 04:20:00;;;;;;;7.55;5.20;;;13.10;72.60;;;;;;5114742;28;20044;-64
2022/05/22 04:22:26;;;;;;;11.75;5.60;;;13.20;72.50;;;;;;5114810;28;20031;-64
2022/05/22 04:27:41;;;;;;;12.30;5.50;;;13.30;72.40;;;;;;5114650;28;20058;-64
2022/05/22 04:30:09;;;;;;;8.65;5.82;;;13.30;72.80;;;;;;5114634;28;20055;-64
2022/05/22 04:32:35;;;;;;;8.77;5.18;;;13.30;72.40;;;;;;5113534;28;20096;-64
2022/05/22 04:35:01;;;;;;;7.85;5.82;;;13.30;72.40;;;;;;5114529;28;20409;-64
2022/05/22 04:37:27;;;;;;;12.90;5.70;;;13.10;72.60;;;;;;5113548;28;20050;-64
2022/05/22 04:39:52;;;;;;;8.32;5.60;;;12.90;73.20;;;;;;5113357;28;20024;-64
2022/05/22 04:42:18;;;;;;;10.30;5.97;;;12.80;73.90;;;;;;5113386;28;20051;-64
2022/05/22 04:44:44;;;;;;;10.82;6.13;;;12.70;74.70;;;;;;5114174;28;20032;-66
2022/05/22 04:47:10;;;;;;;12.07;5.80;;;12.70;75.00;;;;;;5114268;28;20051;-63
2022/05/22 04:49:35;;;;;;;11.43;6.47;;;12.90;75.20;;;;;;5114217;28;20035;-63
2022/05/22 04:52:01;;;;;;;11.73;6.85;;;13.00;75.00;;;;;;5114166;28;20048;-66
2022/05/22 04:54:26;;;;;;;12.57;6.88;;;13.00;75.00;;;;;;5114110;28;20078;-66
2022/05/22 04:56:55;;;;;;;11.65;7.18;;;13.10;75.20;;;;;;5114093;28;20093;-66
2022/05/22 04:59:21;;;;;;;10.52;6.43;;;13.20;75.20;;;;;;5114031;28;20043;-66
2022/05/22 05:01:47;;;;;;;11.77;6.57;;;13.30;75.10;;;;;;5113119;28;20036;-66
2022/05/22 05:04:13;;;;;;;11.65;6.75;;;13.40;75.30;;;;;;5113893;28;20032;-63
2022/05/22 05:06:38;;;;;;;10.90;6.90;;;13.40;75.50;;;;;;5113908;28;20016;-63
2022/05/22 05:09:04;;;;;;;10.75;6.68;;;13.40;75.50;;;;;;5112841;28;20032;-63
2022/05/22 05:11:30;;;;;;;12.13;7.30;;;13.50;75.90;;;;;;5113850;28;20032;-63
2022/05/22 05:13:55;;;;;;;13.77;7.22;;;13.50;76.20;;;;;;5112829;28;20065;-64
2022/05/22 05:16:22;;;;;;;11.40;6.80;;;13.50;76.60;;;;;;5113763;28;20107;-64
2022/05/22 05:18:47;;;;;;;12.93;7.38;;;13.40;77.00;;;;;;5113759;28;20429;-64
2022/05/22 05:21:15;;;;;;;11.95;7.72;;;13.40;77.40;;;;;;5113696;28;20036;-64
2022/05/22 05:23:41;;;;;;;12.88;7.13;;;13.50;77.20;;;;;;5112561;28;20028;-64
2022/05/22 05:26:07;;;;;;;13.60;7.60;;;13.60;76.90;;;;;;5113422;28;20050;-64
2022/05/22 05:28:33;;;;;;;12.07;7.15;;;13.70;77.10;;;;;;5113496;28;20032;-63
2022/05/22 05:30:59;;;;;;;13.57;7.75;;;13.80;77.00;;;;;;5113633;28;20024;-63
2022/05/22 05:33:25;;;;;;;12.35;7.78;;;13.80;77.20;;;;;;5113629;28;20024;-63
2022/05/22 05:35:51;;;;;;;13.05;8.00;;;13.90;77.20;;;;;;5113495;28;20024;-64
2022/05/22 05:38:17;;;;;;;12.18;7.90;;;14.00;77.30;;;;;;5113505;28;20210;-64
2022/05/22 05:40:43;;;;;;;12.95;7.63;;;14.00;77.20;;;;;;5113433;28;20038;-64
2022/05/22 05:43:09;;;;;;;16.95;8.15;;;14.10;77.40;;;;;;5113344;28;20034;-64
2022/05/22 05:45:35;;;;;;;17.42;8.05;;;14.10;77.40;;;;;;5112509;28;20024;-64
2022/05/22 05:48:00;;;;;;;15.27;7.97;;;14.10;77.40;;;;;;5112491;28;20031;-64
2022/05/22 05:50:27;;;;;;;17.45;8.20;;;14.20;77.20;;;;;;5113368;28;20040;-64
2022/05/22 05:52:55;;;;;;;13.95;7.72;;;14.30;77.10;;;;;;5112372;28;20028;-64
2022/05/22 05:55:21;;;;;;;15.38;7.70;;;14.30;77.50;;;;;;5115062;28;20151;-64
2022/05/22 05:57:47;;;;;;;18.60;8.73;;;14.20;77.50;;;;;;5117514;28;20024;-64
2022/05/22 06:00:16;;;;;;;14.02;8.40;;;14.30;77.90;;;;;;5117525;28;20032;-64
2022/05/22 06:02:42;;;;;;;15.43;8.05;;;14.40;78.90;;;;;;5117324;28;20058;-64
2022/05/22 06:05:09;;;;;;;13.68;7.53;;;14.40;78.20;;;;;;5117411;28;20023;-64
2022/05/22 06:07:35;;;;;;;13.43;6.93;;;14.50;78.50;;;;;;5117375;28;20034;-64
2022/05/22 06:10:01;;;;;;;11.20;6.32;;;14.50;78.10;;;;;;5117388;28;20025;-64
2022/05/22 06:12:27;;;;;;;15.63;7.13;;;14.60;78.60;;;;;;5117272;28;20081;-64
2022/05/22 06:14:52;;;;;;;12.45;6.68;;;14.60;77.60;;;;;;5117190;28;20077;-63
2022/05/22 06:17:18;;;;;;;20.67;7.25;;;14.70;77.60;;;;;;5117124;28;20035;-64
2022/05/22 06:19:57;;;;;;;11.45;6.82;;;14.80;77.60;;;;;;5117095;28;20028;-64
2022/05/22 06:22:25;;;;;;;12.25;6.60;;;14.90;77.30;;;;;;5117108;28;20024;-64
2022/05/22 06:24:52;;;;;;;12.90;6.55;;;15.00;76.40;;;;;;5116756;28;20036;-64
2022/05/22 06:27:18;;;;;;;13.70;7.18;;;15.00;75.90;;;;;;5117051;28;20050;-63
2022/05/22 06:29:44;;;;;;;12.65;6.63;;;15.00;76.00;;;;;;5116895;28;20050;-64
2022/05/22 06:32:15;;;;;;;9.68;6.22;;;15.10;76.40;;;;;;5116922;28;20020;-64
2022/05/22 06:34:41;;;;;;;11.35;6.55;;;15.20;75.50;;;;;;5115929;28;20051;-65
2022/05/22 06:37:09;;;;;;;13.60;6.32;;;15.30;75.80;;;;;;5116797;28;20099;-64
2022/05/22 06:39:51;;;;;;;9.85;6.15;;;15.30;75.70;;;;;;5116730;28;20028;-64
2022/05/22 06:42:26;;;;;;;11.43;5.35;;;15.30;75.60;;;;;;5116759;28;20024;-64
2022/05/22 06:44:57;;;;;;;12.57;5.95;;;15.40;75.20;;;;;;5116611;28;20025;-64
2022/05/22 06:47:24;;;;;;;12.38;5.93;;;15.40;76.00;;;;;;5116593;28;20020;-64
2022/05/22 06:49:51;;;;;;;10.93;5.35;;;15.50;75.10;;;;;;5116568;28;20020;-64
2022/05/22 06:52:16;;;;;;;10.15;5.32;;;15.50;74.80;;;;;;5116487;28;20042;-64
2022/05/22 06:54:42;;;;;;;10.20;6.07;;;15.60;74.60;;;;;;5116367;28;20084;-65
2022/05/22 06:57:08;;;;;;;12.55;5.75;;;15.70;74.60;;;;;;5115351;28;20113;-64
2022/05/22 06:59:34;;;;;;;12.50;5.63;;;15.70;74.00;;;;;;5116362;28;20039;-64
2022/05/22 07:02:00;;;;;;;11.07;6.13;;;15.80;74.10;;;;;;5116351;28;20077;-64
2022/05/22 07:04:27;;;;;;;12.15;6.03;;;15.90;73.90;;;;;;5116196;28;20020;-64
2022/05/22 07:06:53;;;;;;;9.43;5.20;;;15.90;73.40;;;;;;5114876;28;20020;-64
2022/05/22 07:09:19;;;;;;;11.73;5.60;;;16.00;72.80;;;;;;5116164;28;20012;-64
2022/05/22 07:11:45;;;;;;;14.98;5.57;;;16.10;73.00;;;;;;5116121;28;20572;-64
2022/05/22 07:14:14;;;;;;;16.13;5.32;;;16.10;73.00;;;;;;5116057;28;20028;-64
2022/05/22 07:16:40;;;;;;;12.35;5.72;;;16.30;73.00;;;;;;5116053;28;20041;-64
2022/05/22 07:19:08;;;;;;;13.93;5.53;;;16.30;72.40;;;;;;5116003;28;20032;-64
2022/05/22 07:21:33;;;;;;;10.05;5.38;;;16.50;70.60;;;;;;5115968;28;20042;-64
2022/05/22 07:24:02;;;;;;;8.32;4.85;;;16.40;70.60;;;;;;5115883;28;20032;-65
2022/05/22 07:26:29;;;;;;;11.55;5.50;;;16.50;71.20;;;;;;5115532;28;20063;-64
2022/05/22 07:28:58;;;;;;;10.90;5.38;;;16.60;71.60;;;;;;5115766;28;20043;-64
2022/05/22 07:31:27;;;;;;;9.85;5.13;;;16.70;71.00;;;;;;5115783;28;20020;-64
2022/05/22 07:33:53;;;;;;;9.95;5.22;;;16.70;70.70;;;;;;5115726;28;20107;-64
2022/05/22 07:36:20;;;;;;;12.15;5.97;;;16.70;69.00;;;;;;5115656;28;20024;-64
2022/05/22 07:38:46;;;;;;;10.32;5.57;;;16.80;70.50;;;;;;5114565;28;20032;-64
2022/05/22 07:41:12;;;;;;;13.25;6.10;;;16.80;69.30;;;;;;5115247;28;20490;-64
2022/05/22 07:43:39;;;;;;;17.08;7.38;;;16.90;69.00;;;;;;5115439;28;20024;-64
2022/05/22 07:46:07;;;;;;;11.27;5.65;;;16.90;69.70;;;;;;5115480;28;20046;-64
2022/05/22 07:48:33;;;;;;;14.57;6.47;;;17.00;70.20;;;;;;5115452;28;20024;-64
2022/05/22 07:51:02;;;;;;;14.18;6.28;;;17.10;70.10;;;;;;5114277;28;20023;-64
2022/05/22 07:53:29;;;;;;;11.98;6.60;;;17.20;68.70;;;;;;5115307;28;20050;-64
2022/05/22 07:55:55;;;;;;;12.70;5.50;;;17.20;68.00;;;;;;5115283;28;20050;-65
2022/05/22 07:58:22;;;;;;;13.60;6.18;;;17.30;65.40;;;;;;5115209;28;20028;-65
2022/05/22 08:00:50;;;;;;;10.32;6.60;;;17.30;66.20;;;;;;5115170;28;20031;-64
2022/05/22 08:03:17;;;;;;;9.95;5.80;;;17.30;66.90;;;;;;5115048;28;20040;-64
2022/05/22 08:05:43;;;;;;;13.35;6.10;;;17.30;66.30;;;;;;5114059;28;20020;-64
2022/05/22 08:08:09;;;;;;;12.27;6.25;;;17.40;66.90;;;;;;5114056;28;20028;-64
2022/05/22 08:10:37;;;;;;;16.10;6.40;;;17.50;67.50;;;;;;5115057;28;20035;-64
2022/05/22 08:13:07;;;;;;;12.10;6.63;;;17.60;66.60;;;;;;5115035;28;20024;-64
2022/05/22 08:15:34;;;;;;;11.15;5.97;;;17.70;66.30;;;;;;5114923;28;20052;-64
2022/05/22 08:18:00;;;;;;;13.65;6.00;;;17.80;66.60;;;;;;5114459;28;20024;-63
2022/05/22 08:20:28;;;;;;;12.35;6.15;;;17.90;66.90;;;;;;5114798;28;20062;-64
2022/05/22 08:22:56;;;;;;;12.93;7.05;;;18.00;65.00;;;;;;5114647;28;20031;-64
2022/05/22 08:25:25;;;;;;;12.25;6.03;;;17.80;64.30;;;;;;5114572;28;20079;-64
2022/05/22 08:27:52;;;;;;;13.20;6.18;;;17.80;64.50;;;;;;5114582;28;20050;-64
2022/05/22 08:30:19;;;;;;;14.32;5.80;;;17.90;65.20;;;;;;5114629;28;20020;-64
2022/05/22 08:32:47;;;;;;;13.32;6.38;;;18.00;65.20;;;;;;5114584;28;20017;-64
2022/05/22 08:35:16;;;;;;;12.70;6.47;;;18.00;65.80;;;;;;5114523;28;20017;-64
2022/05/22 08:37:43;;;;;;;13.45;6.30;;;18.20;65.20;;;;;;5114359;28;20032;-64
2022/05/22 08:40:11;;;;;;;11.15;5.85;;;18.20;63.70;;;;;;5114443;28;20462;-64
2022/05/22 08:42:43;;;;;;;10.10;6.38;;;18.20;63.90;;;;;;5114342;28;20475;-64
2022/05/22 08:45:18;;;;;;;9.73;6.75;;;18.40;64.60;;;;;;5114406;28;20053;-64
2022/05/22 08:47:52;;;;;;;12.55;6.13;;;18.50;64.70;;;;;;5114418;28;20145;-64
2022/05/22 08:50:19;;;;;;;12.82;6.38;;;18.50;63.80;;;;;;5114338;28;20043;-65
2022/05/22 08:52:56;;;;;;;11.07;5.63;;;18.60;64.20;;;;;;5114200;28;20028;-64
2022/05/22 08:58:56;;;;;;;10.25;4.85;;;18.70;64.80;;;;;;5114165;28;20020;-64
2022/05/22 09:01:16;;;;;;;10.27;5.13;;;18.60;59.90;;;;;;5114234;28;20153;-64
2022/05/22 09:04:05;;;;;;;12.90;5.50;;;18.70;62.20;;;;;;5113984;28;20032;-64
2022/05/22 09:06:41;;;;;;;8.90;4.63;;;18.80;62.90;;;;;;5114083;28;20012;-64
2022/05/22 09:09:07;;;;;;;10.95;4.55;;;18.90;62.40;;;;;;5113938;28;20016;-64
2022/05/22 09:11:54;;;;;;;11.63;4.75;;;19.00;62.60;;;;;;5113953;28;20053;-64
2022/05/22 09:14:29;;;;;;;11.85;4.47;;;19.10;62.40;;;;;;5113883;28;20587;-64
2022/05/22 09:17:17;;;;;;;7.43;3.97;;;19.20;62.00;;;;;;5113847;28;20024;-64
2022/05/22 09:20:09;;;;;;;12.15;4.45;;;19.30;61.10;;;;;;5113789;28;20020;-64
2022/05/22 09:23:09;;;;;;;9.68;4.78;;;19.20;58.30;;;;;;5112582;28;20058;-64
2022/05/22 09:25:40;;;;;;;13.63;6.00;;;19.30;59.10;;;;;;5112661;28;20044;-64
2022/05/22 09:28:23;;;;;;;11.98;5.85;;;19.40;56.80;;;;;;5112491;28;20024;-64
2022/05/22 09:31:07;;;;;;;10.75;5.15;;;19.30;57.80;;;;;;5112893;28;20024;-64
2022/05/22 09:33:57;;;;;;;10.95;5.30;;;19.40;59.50;;;;;;5113513;28;20031;-64
2022/05/22 09:36:48;;;;;;;14.57;5.47;;;19.50;60.30;;;;;;5112766;28;20035;-64
2022/05/22 09:39:56;;;;;;;9.82;6.05;;;19.50;58.90;;;;;;5113487;28;20039;-64
2022/05/22 09:42:28;;;;;;;13.50;6.95;;;19.40;57.90;;;;;;5112448;28;20028;-64
2022/05/22 09:45:04;;;;;;;14.00;6.50;;;19.20;57.30;;;;;;5113484;28;20032;-64
2022/05/22 09:47:52;;;;;;;13.73;6.72;;;19.20;58.60;;;;;;5113370;28;20046;-64
2022/05/22 09:50:35;;;;;;;15.07;7.82;;;19.20;57.00;;;;;;5113430;28;20024;-64
2022/05/22 09:53:34;;;;;;;14.82;8.10;;;19.20;57.70;;;;;;5113547;28;20032;-64
2022/05/22 09:56:11;;;;;;;12.57;7.38;;;19.30;56.50;;;;;;5107251;28;20036;-64
2022/05/22 09:58:58;;;;;;;13.18;7.45;;;19.40;58.40;;;;;;5113284;28;20024;-64
2022/05/22 10:01:24;;;;;;;13.75;8.73;;;19.60;58.20;;;;;;5113423;28;20039;-65
2022/05/22 10:03:53;;;;;;;16.35;8.50;;;19.80;56.70;;;;;;5113113;28;20024;-64
2022/05/22 10:06:44;;;;;;;13.63;7.57;;;19.80;56.10;;;;;;5112139;28;20024;-64
2022/05/22 10:09:27;;;;;;;11.32;7.30;;;19.90;57.60;;;;;;5081925;28;20032;-64
2022/05/22 10:12:23;;;;;;;12.32;7.75;;;20.00;57.70;;;;;;5113285;28;20020;-64
2022/05/22 10:15:26;;;;;;;11.82;7.93;;;20.20;57.90;;;;;;5113274;28;20031;-64
2022/05/22 10:18:17;;;;;;;13.18;7.38;;;20.30;54.70;;;;;;5113051;28;20028;-64
2022/05/22 10:21:05;;;;;;;15.50;8.05;;;20.20;54.10;;;;;;5113223;28;20035;-64
2022/05/22 10:23:46;;;;;;;14.90;7.28;;;20.20;57.60;;;;;;5113172;28;20020;-64
2022/05/22 10:26:28;;;;;;;10.43;7.30;;;20.30;55.30;;;;;;5112937;28;20487;-65
2022/05/22 10:29:08;;;;;;;14.93;8.07;;;20.40;55.80;;;;;;5113010;28;20032;-64
2022/05/22 10:31:36;;;;;;;16.90;7.68;;;20.50;55.00;;;;;;5113066;28;20046;-64
2022/05/22 10:34:36;;;;;;;12.75;7.40;;;20.50;54.00;;;;;;5112889;28;20048;-64
2022/05/22 10:37:27;;;;;;;11.85;7.53;;;20.50;52.00;;;;;;5113086;28;20020;-65
2022/05/22 10:39:53;;;;;;;10.38;7.13;;;20.40;53.60;;;;;;5113089;28;20040;-64
2022/05/22 10:42:45;;;;;;;12.50;7.70;;;20.50;55.40;;;;;;5115955;28;20028;-64
2022/05/22 10:45:16;;;;;;;13.00;7.15;;;20.40;55.20;;;;;;5116694;28;20043;-64
2022/05/22 10:47:43;;;;;;;12.40;8.30;;;20.50;52.40;;;;;;5116690;28;20054;-65
2022/05/22 10:50:15;;;;;;;12.57;7.32;;;20.40;52.20;;;;;;5116541;28;20254;-64
2022/05/22 10:52:40;;;;;;;13.82;7.38;;;20.40;54.40;;;;;;5115533;28;20020;-64
2022/05/22 10:55:31;;;;;;;9.05;6.65;;;20.50;55.70;;;;;;5116370;28;20110;-64
2022/05/22 10:58:15;;;;;;;14.40;7.40;;;20.70;50.10;;;;;;5115403;28;20028;-64
2022/05/22 11:00:58;;;;;;;10.38;6.93;;;20.60;51.80;;;;;;5116492;28;20025;-64
2022/05/22 11:03:28;;;;;;;;;;;20.60;52.10;;;;;;5116684;28;20024;-64
2022/05/22 11:05:54;;;;;;;11.35;6.55;;;20.70;53.40;;;;;;5116322;28;19904;-65
2022/05/22 11:08:48;;;;;;;11.38;6.60;;;20.90;54.00;;;;;;5116199;28;20017;-64
2022/05/22 11:11:16;;;;;;;12.30;8.40;;;21.10;52.30;;;;;;5116220;28;20031;-64
2022/05/22 11:13:42;;;;;;;15.45;8.38;;;21.10;53.50;;;;;;5116130;28;20035;-64
2022/05/22 11:16:13;;;;;;;14.38;8.07;;;21.20;53.30;;;;;;5116172;28;20028;-64
2022/05/22 11:18:39;;;;;;;10.85;7.15;;;21.40;53.00;;;;;;5115994;28;20058;-64
2022/05/22 11:21:19;;;;;;;13.27;7.80;;;21.50;53.40;;;;;;5115924;28;20091;-64
2022/05/22 11:23:53;;;;;;;14.15;8.20;;;21.60;50.80;;;;;;5115905;28;20020;-64
2022/05/22 11:26:34;;;;;;;13.93;8.48;;;21.60;50.10;;;;;;5115616;28;20040;-64
2022/05/22 11:29:14;;;;;;;14.07;7.75;;;21.60;50.50;;;;;;5115878;28;20376;-64
2022/05/22 11:31:58;;;;;;;16.30;8.77;;;21.60;50.40;;;;;;5114659;28;20050;-64
2022/05/22 11:35:02;;;;;;;11.50;8.32;;;21.60;49.70;;;;;;5115664;28;20054;-64
2022/05/22 11:37:37;;;;;;;11.48;7.72;;;21.40;51.20;;;;;;5070811;28;20065;-64
2022/05/22 11:40:40;;;;;;;12.65;8.55;;;21.50;50.80;;;;;;5115654;28;20035;-64
2022/05/22 11:43:11;;;;;;;10.73;7.72;;;21.50;49.70;;;;;;5090823;28;20097;-64
2022/05/22 11:45:48;;;;;;;11.77;8.20;;;21.50;50.80;;;;;;5115527;28;20043;-64
2022/05/22 11:48:49;;;;;;;11.63;7.97;;;21.60;49.90;;;;;;5115489;28;20046;-64
2022/05/22 11:51:39;;;;;;;10.82;7.50;;;21.60;49.90;;;;;;5104457;28;20028;-64
2022/05/22 11:54:33;;;;;;;10.50;8.25;;;21.60;48.10;;;;;;5114743;28;20020;-64
2022/05/22 11:57:14;;;;;;;9.52;7.18;;;21.40;47.90;;;;;;5115257;28;20020;-65
2022/05/22 12:00:23;;;;;;;9.98;7.07;;;21.50;49.50;;;;;;5114192;28;20032;-65
2022/05/22 12:02:58;;;;;;;9.98;7.82;;;21.50;46.30;;;;;;5115185;28;20043;-65
2022/05/22 12:05:33;;;;;;;12.52;8.00;;;21.60;49.00;;;;;;5115248;28;20024;-65
2022/05/22 12:08:36;;;;;;;12.52;7.97;;;21.60;47.80;;;;;;5115228;28;20027;-65
2022/05/22 12:11:21;;;;;;;12.35;8.40;;;21.60;48.20;;;;;;5115082;28;20024;-65
2022/05/22 12:14:26;;;;;;;10.50;8.30;;;21.60;47.20;;;;;;5113949;28;20030;-65
2022/05/22 12:17:19;;;;;;;10.93;8.48;;;21.60;48.80;;;;;;5114860;28;20088;-65
2022/05/22 12:19:45;;;;;;;10.48;7.07;;;21.50;46.30;;;;;;5114921;28;20024;-65
2022/05/22 12:22:16;;;;;;;11.38;7.68;;;21.70;48.40;;;;;;5114782;28;20031;-65
2022/05/22 12:25:04;;;;;;;12.55;8.13;;;21.90;47.60;;;;;;5114478;28;20461;-65
2022/05/22 12:27:34;;;;;;;12.32;8.60;;;22.10;47.50;;;;;;5114800;28;20059;-65
2022/05/22 12:30:02;;;;;;;11.43;8.63;;;22.10;47.90;;;;;;5114582;28;20457;-65
2022/05/22 12:32:30;;;;;;;12.57;8.23;;;22.30;48.20;;;;;;5113589;28;20130;-65
2022/05/22 12:34:59;;;;;;;10.73;8.38;;;22.40;47.80;;;;;;5114560;28;20107;-65
2022/05/22 12:37:46;;;;;;;11.85;8.13;;;22.40;47.20;;;;;;5114550;28;20024;-65
2022/05/22 12:40:42;;;;;;;11.93;8.15;;;22.50;48.20;;;;;;5114557;28;20028;-65
2022/05/22 12:43:13;;;;;;;13.25;8.88;;;22.60;44.40;;;;;;5114419;28;20035;-65
2022/05/22 12:45:39;;;;;;;13.82;10.32;;;22.50;45.50;;;;;;5114388;28;20031;-65
2022/05/22 12:48:09;;;;;;;11.95;9.57;;;22.30;44.80;;;;;;5114283;28;20102;-65
2022/05/22 12:50:42;;;;;;;13.85;9.32;;;22.30;45.10;;;;;;5114217;28;20024;-65
2022/05/22 12:53:24;;;;;;;14.13;9.52;;;22.30;45.10;;;;;;5114336;28;20043;-65
2022/05/22 12:55:50;;;;;;;14.93;9.18;;;22.40;46.70;;;;;;5114378;28;20046;-65
2022/05/22 12:59:20;;;;;;;12.70;8.20;;;22.60;46.50;;;;;;5114137;28;20020;-65
2022/05/22 13:01:48;;;;;;;13.05;8.05;;;22.90;48.10;;;;;;5050006;28;20044;-65
2022/05/22 13:04:18;;;;;;;12.30;8.40;;;23.10;46.20;;;;;;5113900;28;20126;-65
2022/05/22 13:06:55;;;;;;;10.60;8.23;;;23.10;43.60;;;;;;5113946;28;20075;-65
2022/05/22 13:09:31;;;;;;;11.57;7.90;;;23.10;45.70;;;;;;5113905;28;20024;-65
2022/05/22 13:12:31;;;;;;;10.73;7.55;;;23.10;43.40;;;;;;5114014;28;20024;-65
2022/05/22 13:15:14;;;;;;;9.38;7.20;;;23.00;42.10;;;;;;5109098;28;20065;-65
2022/05/22 13:17:50;;;;;;;10.10;6.57;;;22.90;42.60;;;;;;5113800;28;20042;-65